sensor_id;sensor_type;location;lat;lon;timestamp;temperature;humidity
11055;DHT22;5580;50.106;8.702;2024-01-15T00:01:17;-0.40;99.90
11055;DHT22;5580;50.106;8.702;2024-01-15T00:03:42;-0.40;99.90
11055;DHT22;5580;50.106;8.702;2024-01-15T00:06:08;-0.50;99.90
11055;DHT22;5580;50.106;8.702;2024-01-15T00:08:34;-0.40;99.90
11055;DHT22;5580;50.106;8.702;2024-01-15T00:10:59;-0.40;99.90
11055;DHT22;5580;50.106;8.702;2024-01-15T00:13:25;-0.40;99.90
11055;DHT22;5580;50.106;8.702;2024-01-15T00:15:50;-0.40;99.90
11055;DHT22;5580;50.106;8.702;2024-01-15T00:18:16;-0.40;99.90
11055;DHT22;5580;50.106;8.702;2024-01-15T00:20:41;-0.40;99.90
11055;DHT22;5580;50.106;8.702;2024-01-15T00:23:07;-0.40;99.90
11055;DHT22;5580;50.106;8.702;2024-01-15T00:25:33;-0.40;99.90
11055;DHT22;5580;50.106;8.702;2024-01-15T00:27:58;-0.30;99.90
11055;DHT22;5580;50.106;8.702;2024-01-15T00:30:24;-0.30;99.90
11055;DHT22;5580;50.106;8.702;2024-01-15T00:32:49;-0.40;99.90
11055;DHT22;5580;50.106;8.702;2024-01-15T00:35:15;-0.30;99.90
11055;DHT22;5580;50.106;8.702;2024-01-15T00:37:40;-0.40;99.90
11055;DHT22;5580;50.106;8.702;2024-01-15T00:40:06;-0.40;99.90
11055;DHT22;5580;50.106;8.702;2024-01-15T00:42:33;-0.30;99.90
11055;DHT22;5580;50.106;8.702;2024-01-15T00:44:59;-0.30;99.90
11055;DHT22;5580;50.106;8.702;2024-01-15T00:47:25;-0.30;99.90
11055;DHT22;5580;50.106;8.702;2024-01-15T00:49:51;-0.30;99.90
11055;DHT22;5580;50.106;8.702;2024-01-15T00:52:16;-0.20;99.90
11055;DHT22;5580;50.106;8.702;2024-01-15T00:54:42;-0.10;99.90
11055;DHT22;5580;50.106;8.702;2024-01-15T00:57:07;-0.10;99.90
11055;DHT22;5580;50.106;8.702;2024-01-15T00:59:33;0.00;99.90
11055;DHT22;5580;50.106;8.702;2024-01-15T01:01:59;0.00;99.90
11055;DHT22;5580;50.106;8.702;2024-01-15T01:04:24;-0.10;99.90
11055;DHT22;5580;50.106;8.702;2024-01-15T01:06:50;-0.20;99.90
11055;DHT22;5580;50.106;8.702;2024-01-15T01:09:15;-0.20;99.90
11055;DHT22;5580;50.106;8.702;2024-01-15T01:11:41;-0.20;99.90
11055;DHT22;5580;50.106;8.702;2024-01-15T01:14:06;-0.30;99.90
11055;DHT22;5580;50.106;8.702;2024-01-15T01:16:32;-0.30;99.90
11055;DHT22;5580;50.106;8.702;2024-01-15T01:19:04;-0.40;99.90
11055;DHT22;5580;50.106;8.702;2024-01-15T01:21:30;-0.30;99.90
11055;DHT22;5580;50.106;8.702;2024-01-15T01:23:56;-0.40;99.90
11055;DHT22;5580;50.106;8.702;2024-01-15T01:26:21;-0.50;99.90
11055;DHT22;5580;50.106;8.702;2024-01-15T01:28:47;-0.50;99.90
11055;DHT22;5580;50.106;8.702;2024-01-15T01:31:12;-0.60;99.90
11055;DHT22;5580;50.106;8.702;2024-01-15T01:33:39;-0.60;99.90
11055;DHT22;5580;50.106;8.702;2024-01-15T01:36:08;-0.50;99.90
11055;DHT22;5580;50.106;8.702;2024-01-15T01:38:35;-0.60;99.90
11055;DHT22;5580;50.106;8.702;2024-01-15T01:41:01;-0.60;99.90
11055;DHT22;5580;50.106;8.702;2024-01-15T01:43:26;-0.60;99.90
11055;DHT22;5580;50.106;8.702;2024-01-15T01:45:52;-0.50;99.90
11055;DHT22;5580;50.106;8.702;2024-01-15T01:48:21;-0.50;99.90
11055;DHT22;5580;50.106;8.702;2024-01-15T01:50:46;-0.50;99.90
11055;DHT22;5580;50.106;8.702;2024-01-15T01:53:12;-0.60;99.90
11055;DHT22;5580;50.106;8.702;2024-01-15T01:55:38;-0.60;99.90
11055;DHT22;5580;50.106;8.702;2024-01-15T01:58:04;-0.60;99.90
11055;DHT22;5580;50.106;8.702;2024-01-15T02:00:31;-0.60;99.90
11055;DHT22;5580;50.106;8.702;2024-01-15T02:02:57;-0.60;99.90
11055;DHT22;5580;50.106;8.702;2024-01-15T02:05:23;-0.60;99.90
11055;DHT22;5580;50.106;8.702;2024-01-15T02:07:49;-0.50;99.90
11055;DHT22;5580;50.106;8.702;2024-01-15T02:10:14;-0.50;99.90
11055;DHT22;5580;50.106;8.702;2024-01-15T02:12:40;-0.50;99.90
11055;DHT22;5580;50.106;8.702;2024-01-15T02:15:06;-0.50;99.90
11055;DHT22;5580;50.106;8.702;2024-01-15T02:17:31;-0.60;99.90
11055;DHT22;5580;50.106;8.702;2024-01-15T02:19:57;-0.50;99.90
11055;DHT22;5580;50.106;8.702;2024-01-15T02:22:23;-0.50;99.90
11055;DHT22;5580;50.106;8.702;2024-01-15T02:24:48;-0.50;99.90
11055;DHT22;5580;50.106;8.702;2024-01-15T02:27:14;-0.40;99.90
11055;DHT22;5580;50.106;8.702;2024-01-15T02:29:40;-0.40;99.90
11055;DHT22;5580;50.106;8.702;2024-01-15T02:32:06;-0.50;99.90
11055;DHT22;5580;50.106;8.702;2024-01-15T02:34:32;-0.40;99.90
11055;DHT22;5580;50.106;8.702;2024-01-15T02:36:58;-0.40;99.90
11055;DHT22;5580;50.106;8.702;2024-01-15T02:39:24;-0.40;99.90
11055;DHT22;5580;50.106;8.702;2024-01-15T02:41:49;-0.40;99.90
11055;DHT22;5580;50.106;8.702;2024-01-15T02:44:15;-0.40;99.90
11055;DHT22;5580;50.106;8.702;2024-01-15T02:46:40;-0.40;99.90
11055;DHT22;5580;50.106;8.702;2024-01-15T02:49:06;-0.40;99.90
11055;DHT22;5580;50.106;8.702;2024-01-15T02:51:31;-0.40;99.90
11055;DHT22;5580;50.106;8.702;2024-01-15T02:53:57;-0.40;99.90
11055;DHT22;5580;50.106;8.702;2024-01-15T02:56:22;-0.40;99.90
11055;DHT22;5580;50.106;8.702;2024-01-15T02:58:48;-0.40;99.90
11055;DHT22;5580;50.106;8.702;2024-01-15T03:01:13;-0.40;99.90
11055;DHT22;5580;50.106;8.702;2024-01-15T03:03:40;-0.40;99.90
11055;DHT22;5580;50.106;8.702;2024-01-15T03:06:06;-0.40;99.90
11055;DHT22;5580;50.106;8.702;2024-01-15T03:08:31;-0.40;99.90
11055;DHT22;5580;50.106;8.702;2024-01-15T03:10:57;-0.40;99.90
11055;DHT22;5580;50.106;8.702;2024-01-15T03:13:22;-0.40;99.90
11055;DHT22;5580;50.106;8.702;2024-01-15T03:15:48;-0.40;99.90
11055;DHT22;5580;50.106;8.702;2024-01-15T03:18:13;-0.40;99.90
11055;DHT22;5580;50.106;8.702;2024-01-15T03:20:39;-0.40;99.90
11055;DHT22;5580;50.106;8.702;2024-01-15T03:23:05;-0.40;99.90
11055;DHT22;5580;50.106;8.702;2024-01-15T03:25:30;-0.50;99.90
11055;DHT22;5580;50.106;8.702;2024-01-15T03:27:56;-0.50;99.90
11055;DHT22;5580;50.106;8.702;2024-01-15T03:30:21;-0.50;99.90
11055;DHT22;5580;50.106;8.702;2024-01-15T03:32:47;-0.40;99.90
11055;DHT22;5580;50.106;8.702;2024-01-15T03:35:13;-0.40;99.90
11055;DHT22;5580;50.106;8.702;2024-01-15T03:37:38;-0.30;99.90
11055;DHT22;5580;50.106;8.702;2024-01-15T03:40:04;-0.30;99.90
11055;DHT22;5580;50.106;8.702;2024-01-15T03:42:30;-0.30;99.90
11055;DHT22;5580;50.106;8.702;2024-01-15T03:44:55;-0.30;99.90
11055;DHT22;5580;50.106;8.702;2024-01-15T03:47:21;-0.30;99.90
11055;DHT22;5580;50.106;8.702;2024-01-15T03:49:47;-0.30;99.90
11055;DHT22;5580;50.106;8.702;2024-01-15T03:52:13;-0.20;99.90
11055;DHT22;5580;50.106;8.702;2024-01-15T03:54:38;-0.10;99.90
11055;DHT22;5580;50.106;8.702;2024-01-15T03:57:04;-0.10;99.90
11055;DHT22;5580;50.106;8.702;2024-01-15T03:59:29;-0.10;99.90
11055;DHT22;5580;50.106;8.702;2024-01-15T04:01:55;-0.10;99.90
11055;DHT22;5580;50.106;8.702;2024-01-15T04:04:21;-0.10;99.90
11055;DHT22;5580;50.106;8.702;2024-01-15T04:06:46;-0.10;99.90
11055;DHT22;5580;50.106;8.702;2024-01-15T04:09:12;-0.10;99.90
11055;DHT22;5580;50.106;8.702;2024-01-15T04:11:39;-0.10;99.90
11055;DHT22;5580;50.106;8.702;2024-01-15T04:14:05;-0.10;99.90
11055;DHT22;5580;50.106;8.702;2024-01-15T04:16:30;-0.10;99.90
11055;DHT22;5580;50.106;8.702;2024-01-15T04:18:56;-0.10;99.90
11055;DHT22;5580;50.106;8.702;2024-01-15T04:21:21;-0.10;99.90
11055;DHT22;5580;50.106;8.702;2024-01-15T04:23:47;-0.20;99.90
11055;DHT22;5580;50.106;8.702;2024-01-15T04:26:13;-0.20;99.90
11055;DHT22;5580;50.106;8.702;2024-01-15T04:28:38;-0.20;99.90
11055;DHT22;5580;50.106;8.702;2024-01-15T04:31:04;-0.20;99.90
11055;DHT22;5580;50.106;8.702;2024-01-15T04:33:29;-0.20;99.90
11055;DHT22;5580;50.106;8.702;2024-01-15T04:35:55;-0.20;99.90
11055;DHT22;5580;50.106;8.702;2024-01-15T04:38:20;-0.20;99.90
11055;DHT22;5580;50.106;8.702;2024-01-15T04:40:46;-0.20;99.90
11055;DHT22;5580;50.106;8.702;2024-01-15T04:43:11;-0.20;99.90
11055;DHT22;5580;50.106;8.702;2024-01-15T04:45:37;-0.20;99.90
11055;DHT22;5580;50.106;8.702;2024-01-15T04:48:03;-0.10;99.90
11055;DHT22;5580;50.106;8.702;2024-01-15T04:50:28;-0.10;99.90
11055;DHT22;5580;50.106;8.702;2024-01-15T04:52:54;-0.10;99.90
11055;DHT22;5580;50.106;8.702;2024-01-15T04:55:21;-0.10;99.90
11055;DHT22;5580;50.106;8.702;2024-01-15T04:57:46;-0.10;99.90
11055;DHT22;5580;50.106;8.702;2024-01-15T05:00:12;-0.10;99.90
11055;DHT22;5580;50.106;8.702;2024-01-15T05:02:38;-0.10;99.90
11055;DHT22;5580;50.106;8.702;2024-01-15T05:05:04;-0.10;99.90
11055;DHT22;5580;50.106;8.702;2024-01-15T05:07:29;-0.10;99.90
11055;DHT22;5580;50.106;8.702;2024-01-15T05:09:55;-0.10;99.90
11055;DHT22;5580;50.106;8.702;2024-01-15T05:12:20;0.00;99.90
11055;DHT22;5580;50.106;8.702;2024-01-15T05:14:46;0.00;99.90
11055;DHT22;5580;50.106;8.702;2024-01-15T05:17:12;0.00;99.90
11055;DHT22;5580;50.106;8.702;2024-01-15T05:19:37;0.00;99.90
11055;DHT22;5580;50.106;8.702;2024-01-15T05:22:03;0.00;99.90
11055;DHT22;5580;50.106;8.702;2024-01-15T05:24:28;0.00;99.90
11055;DHT22;5580;50.106;8.702;2024-01-15T05:26:54;0.00;99.90
11055;DHT22;5580;50.106;8.702;2024-01-15T05:29:19;0.00;99.90
11055;DHT22;5580;50.106;8.702;2024-01-15T05:31:45;0.00;99.90
11055;DHT22;5580;50.106;8.702;2024-01-15T05:34:11;0.00;99.90
11055;DHT22;5580;50.106;8.702;2024-01-15T05:36:36;0.10;99.90
11055;DHT22;5580;50.106;8.702;2024-01-15T05:39:02;0.10;99.90
11055;DHT22;5580;50.106;8.702;2024-01-15T05:41:28;0.10;99.90
11055;DHT22;5580;50.106;8.702;2024-01-15T05:43:53;0.00;99.90
11055;DHT22;5580;50.106;8.702;2024-01-15T05:46:19;0.00;99.90
11055;DHT22;5580;50.106;8.702;2024-01-15T05:48:45;0.00;99.90
11055;DHT22;5580;50.106;8.702;2024-01-15T05:51:10;0.00;99.90
11055;DHT22;5580;50.106;8.702;2024-01-15T05:53:36;0.00;99.90
11055;DHT22;5580;50.106;8.702;2024-01-15T05:56:03;0.00;99.90
11055;DHT22;5580;50.106;8.702;2024-01-15T05:58:29;0.00;99.90
11055;DHT22;5580;50.106;8.702;2024-01-15T06:00:55;0.00;99.90
11055;DHT22;5580;50.106;8.702;2024-01-15T06:03:20;0.00;99.90
11055;DHT22;5580;50.106;8.702;2024-01-15T06:05:46;0.00;99.90
11055;DHT22;5580;50.106;8.702;2024-01-15T06:08:11;0.00;99.90
11055;DHT22;5580;50.106;8.702;2024-01-15T06:10:37;0.00;99.90
11055;DHT22;5580;50.106;8.702;2024-01-15T06:13:02;0.00;99.90
11055;DHT22;5580;50.106;8.702;2024-01-15T06:15:28;0.00;99.90
11055;DHT22;5580;50.106;8.702;2024-01-15T06:17:53;0.00;99.90
11055;DHT22;5580;50.106;8.702;2024-01-15T06:20:19;0.00;99.90
11055;DHT22;5580;50.106;8.702;2024-01-15T06:22:44;0.10;99.90
11055;DHT22;5580;50.106;8.702;2024-01-15T06:25:10;0.10;99.90
11055;DHT22;5580;50.106;8.702;2024-01-15T06:27:36;0.10;99.90
11055;DHT22;5580;50.106;8.702;2024-01-15T06:30:01;0.10;99.90
11055;DHT22;5580;50.106;8.702;2024-01-15T06:32:27;0.10;99.90
11055;DHT22;5580;50.106;8.702;2024-01-15T06:34:53;0.10;99.90
11055;DHT22;5580;50.106;8.702;2024-01-15T06:37:18;0.10;99.90
11055;DHT22;5580;50.106;8.702;2024-01-15T06:39:45;0.10;99.90
11055;DHT22;5580;50.106;8.702;2024-01-15T06:42:11;0.10;99.90
11055;DHT22;5580;50.106;8.702;2024-01-15T06:44:36;0.10;99.90
11055;DHT22;5580;50.106;8.702;2024-01-15T06:47:02;0.10;99.90
11055;DHT22;5580;50.106;8.702;2024-01-15T06:49:31;0.10;99.90
11055;DHT22;5580;50.106;8.702;2024-01-15T06:51:56;0.10;99.90
11055;DHT22;5580;50.106;8.702;2024-01-15T06:54:22;0.10;99.90
11055;DHT22;5580;50.106;8.702;2024-01-15T06:56:49;0.10;99.90
11055;DHT22;5580;50.106;8.702;2024-01-15T06:59:14;0.10;99.90
11055;DHT22;5580;50.106;8.702;2024-01-15T07:01:40;0.10;99.90
11055;DHT22;5580;50.106;8.702;2024-01-15T07:04:05;0.10;99.90
11055;DHT22;5580;50.106;8.702;2024-01-15T07:06:31;0.10;99.90
11055;DHT22;5580;50.106;8.702;2024-01-15T07:08:57;0.20;99.90
11055;DHT22;5580;50.106;8.702;2024-01-15T07:11:23;0.20;99.90
11055;DHT22;5580;50.106;8.702;2024-01-15T07:13:49;0.20;99.90
11055;DHT22;5580;50.106;8.702;2024-01-15T07:16:14;0.10;99.90
11055;DHT22;5580;50.106;8.702;2024-01-15T07:18:40;0.10;99.90
11055;DHT22;5580;50.106;8.702;2024-01-15T07:21:06;0.10;99.90
11055;DHT22;5580;50.106;8.702;2024-01-15T07:23:32;0.10;99.90
11055;DHT22;5580;50.106;8.702;2024-01-15T07:25:57;0.20;99.90
11055;DHT22;5580;50.106;8.702;2024-01-15T07:28:23;0.10;99.90
11055;DHT22;5580;50.106;8.702;2024-01-15T07:30:48;0.10;99.90
11055;DHT22;5580;50.106;8.702;2024-01-15T07:33:14;0.20;99.90
11055;DHT22;5580;50.106;8.702;2024-01-15T07:35:40;0.20;99.90
11055;DHT22;5580;50.106;8.702;2024-01-15T07:38:05;0.10;99.90
11055;DHT22;5580;50.106;8.702;2024-01-15T07:40:31;0.10;99.90
11055;DHT22;5580;50.106;8.702;2024-01-15T07:42:56;0.10;99.90
11055;DHT22;5580;50.106;8.702;2024-01-15T07:45:22;0.10;99.90
11055;DHT22;5580;50.106;8.702;2024-01-15T07:47:48;0.20;99.90
11055;DHT22;5580;50.106;8.702;2024-01-15T07:50:14;0.20;99.90
11055;DHT22;5580;50.106;8.702;2024-01-15T07:52:40;0.30;99.90
11055;DHT22;5580;50.106;8.702;2024-01-15T07:55:07;0.30;99.90
11055;DHT22;5580;50.106;8.702;2024-01-15T07:57:33;0.30;99.90
11055;DHT22;5580;50.106;8.702;2024-01-15T07:59:58;0.30;99.90
11055;DHT22;5580;50.106;8.702;2024-01-15T08:02:24;0.20;99.90
11055;DHT22;5580;50.106;8.702;2024-01-15T08:04:50;0.30;99.90
11055;DHT22;5580;50.106;8.702;2024-01-15T08:07:15;0.30;99.90
11055;DHT22;5580;50.106;8.702;2024-01-15T08:09:41;0.30;99.90
11055;DHT22;5580;50.106;8.702;2024-01-15T08:12:07;0.20;99.90
11055;DHT22;5580;50.106;8.702;2024-01-15T08:14:33;0.20;99.90
11055;DHT22;5580;50.106;8.702;2024-01-15T08:16:58;0.20;99.90
11055;DHT22;5580;50.106;8.702;2024-01-15T08:19:24;0.20;99.90
11055;DHT22;5580;50.106;8.702;2024-01-15T08:21:50;0.20;99.90
11055;DHT22;5580;50.106;8.702;2024-01-15T08:24:15;0.20;99.90
11055;DHT22;5580;50.106;8.702;2024-01-15T08:26:42;0.20;99.90
11055;DHT22;5580;50.106;8.702;2024-01-15T08:29:07;0.20;99.90
11055;DHT22;5580;50.106;8.702;2024-01-15T08:31:33;0.20;99.90
11055;DHT22;5580;50.106;8.702;2024-01-15T08:33:59;0.30;99.90
11055;DHT22;5580;50.106;8.702;2024-01-15T08:36:26;0.30;99.90
11055;DHT22;5580;50.106;8.702;2024-01-15T08:38:52;0.30;99.90
11055;DHT22;5580;50.106;8.702;2024-01-15T08:41:18;0.30;99.90
11055;DHT22;5580;50.106;8.702;2024-01-15T08:43:44;0.30;99.90
11055;DHT22;5580;50.106;8.702;2024-01-15T08:46:09;0.30;99.90
11055;DHT22;5580;50.106;8.702;2024-01-15T08:48:35;0.40;99.90
11055;DHT22;5580;50.106;8.702;2024-01-15T08:51:00;0.40;99.90
11055;DHT22;5580;50.106;8.702;2024-01-15T08:53:26;0.40;99.90
11055;DHT22;5580;50.106;8.702;2024-01-15T08:55:52;0.40;99.90
11055;DHT22;5580;50.106;8.702;2024-01-15T08:58:18;0.40;99.90
11055;DHT22;5580;50.106;8.702;2024-01-15T09:00:43;0.50;99.90
11055;DHT22;5580;50.106;8.702;2024-01-15T09:03:09;0.50;99.90
11055;DHT22;5580;50.106;8.702;2024-01-15T09:05:35;0.60;99.90
11055;DHT22;5580;50.106;8.702;2024-01-15T09:08:01;0.60;99.90
11055;DHT22;5580;50.106;8.702;2024-01-15T09:10:26;0.50;99.90
11055;DHT22;5580;50.106;8.702;2024-01-15T09:12:52;0.50;99.90
11055;DHT22;5580;50.106;8.702;2024-01-15T09:15:17;0.50;99.90
11055;DHT22;5580;50.106;8.702;2024-01-15T09:17:43;0.50;99.90
11055;DHT22;5580;50.106;8.702;2024-01-15T09:20:09;0.50;99.90
11055;DHT22;5580;50.106;8.702;2024-01-15T09:22:37;0.50;99.90
11055;DHT22;5580;50.106;8.702;2024-01-15T09:25:04;0.50;99.90
11055;DHT22;5580;50.106;8.702;2024-01-15T09:27:30;0.50;99.90
11055;DHT22;5580;50.106;8.702;2024-01-15T09:29:56;0.50;99.90
11055;DHT22;5580;50.106;8.702;2024-01-15T09:32:21;0.50;99.90
11055;DHT22;5580;50.106;8.702;2024-01-15T09:34:47;0.60;99.90
11055;DHT22;5580;50.106;8.702;2024-01-15T09:37:14;0.70;99.90
11055;DHT22;5580;50.106;8.702;2024-01-15T09:39:40;0.70;99.90
11055;DHT22;5580;50.106;8.702;2024-01-15T09:42:06;0.80;99.90
11055;DHT22;5580;50.106;8.702;2024-01-15T09:44:32;0.80;99.90
11055;DHT22;5580;50.106;8.702;2024-01-15T09:46:58;0.90;99.90
11055;DHT22;5580;50.106;8.702;2024-01-15T09:49:24;0.90;99.90
11055;DHT22;5580;50.106;8.702;2024-01-15T09:51:50;1.00;99.90
11055;DHT22;5580;50.106;8.702;2024-01-15T09:54:16;1.10;99.90
11055;DHT22;5580;50.106;8.702;2024-01-15T09:56:48;1.10;99.90
11055;DHT22;5580;50.106;8.702;2024-01-15T09:59:18;1.20;99.90
11055;DHT22;5580;50.106;8.702;2024-01-15T10:01:44;1.20;99.90
11055;DHT22;5580;50.106;8.702;2024-01-15T10:04:13;1.30;99.90
11055;DHT22;5580;50.106;8.702;2024-01-15T10:06:41;1.40;99.90
11055;DHT22;5580;50.106;8.702;2024-01-15T10:09:08;1.50;99.90
11055;DHT22;5580;50.106;8.702;2024-01-15T10:11:34;1.50;99.90
11055;DHT22;5580;50.106;8.702;2024-01-15T10:14:01;1.50;99.90
11055;DHT22;5580;50.106;8.702;2024-01-15T10:16:27;1.50;99.90
11055;DHT22;5580;50.106;8.702;2024-01-15T10:18:52;1.60;99.90
11055;DHT22;5580;50.106;8.702;2024-01-15T10:21:18;1.60;99.90
11055;DHT22;5580;50.106;8.702;2024-01-15T10:23:44;1.60;99.90
11055;DHT22;5580;50.106;8.702;2024-01-15T10:26:10;1.60;99.90
11055;DHT22;5580;50.106;8.702;2024-01-15T10:28:37;1.60;99.90
11055;DHT22;5580;50.106;8.702;2024-01-15T10:31:03;1.60;99.90
11055;DHT22;5580;50.106;8.702;2024-01-15T10:33:30;1.60;99.90
11055;DHT22;5580;50.106;8.702;2024-01-15T10:36:00;1.60;99.90
11055;DHT22;5580;50.106;8.702;2024-01-15T10:38:26;1.60;99.90
11055;DHT22;5580;50.106;8.702;2024-01-15T10:40:52;1.60;99.90
11055;DHT22;5580;50.106;8.702;2024-01-15T10:43:18;1.70;99.90
11055;DHT22;5580;50.106;8.702;2024-01-15T10:45:51;1.70;99.90
11055;DHT22;5580;50.106;8.702;2024-01-15T10:48:18;1.70;99.90
11055;DHT22;5580;50.106;8.702;2024-01-15T10:50:46;1.70;99.90
11055;DHT22;5580;50.106;8.702;2024-01-15T10:53:13;1.70;99.90
11055;DHT22;5580;50.106;8.702;2024-01-15T10:55:41;1.80;99.90
11055;DHT22;5580;50.106;8.702;2024-01-15T10:58:08;1.70;99.90
11055;DHT22;5580;50.106;8.702;2024-01-15T11:00:35;1.80;99.90
11055;DHT22;5580;50.106;8.702;2024-01-15T11:03:02;1.80;99.90
11055;DHT22;5580;50.106;8.702;2024-01-15T11:05:28;1.80;99.90
11055;DHT22;5580;50.106;8.702;2024-01-15T11:07:58;1.90;99.90
11055;DHT22;5580;50.106;8.702;2024-01-15T11:13:14;2.00;99.90
11055;DHT22;5580;50.106;8.702;2024-01-15T11:16:06;1.90;99.90
11055;DHT22;5580;50.106;8.702;2024-01-15T11:18:41;1.90;99.90
11055;DHT22;5580;50.106;8.702;2024-01-15T11:23:48;2.00;99.90
11055;DHT22;5580;50.106;8.702;2024-01-15T11:26:33;2.00;99.90
11055;DHT22;5580;50.106;8.702;2024-01-15T11:29:07;2.10;99.90
11055;DHT22;5580;50.106;8.702;2024-01-15T11:34:09;2.10;99.90
11055;DHT22;5580;50.106;8.702;2024-01-15T11:37:01;2.10;99.90
11055;DHT22;5580;50.106;8.702;2024-01-15T11:41:58;2.20;99.90
11055;DHT22;5580;50.106;8.702;2024-01-15T11:44:23;2.20;99.90
11055;DHT22;5580;50.106;8.702;2024-01-15T11:47:09;2.30;99.90
11055;DHT22;5580;50.106;8.702;2024-01-15T11:49:59;2.30;99.90
11055;DHT22;5580;50.106;8.702;2024-01-15T11:52:33;2.30;99.90
11055;DHT22;5580;50.106;8.702;2024-01-15T11:57:46;2.30;99.90
11055;DHT22;5580;50.106;8.702;2024-01-15T12:00:13;2.30;99.90
11055;DHT22;5580;50.106;8.702;2024-01-15T12:02:46;2.30;99.90
11055;DHT22;5580;50.106;8.702;2024-01-15T12:05:13;2.40;99.90
11055;DHT22;5580;50.106;8.702;2024-01-15T12:07:40;2.40;99.90
11055;DHT22;5580;50.106;8.702;2024-01-15T12:10:19;2.40;99.90
11055;DHT22;5580;50.106;8.702;2024-01-15T12:13:04;2.40;99.90
11055;DHT22;5580;50.106;8.702;2024-01-15T12:15:31;2.40;99.90
11055;DHT22;5580;50.106;8.702;2024-01-15T12:17:59;2.40;99.90
11055;DHT22;5580;50.106;8.702;2024-01-15T12:20:26;2.40;99.90
11055;DHT22;5580;50.106;8.702;2024-01-15T12:22:52;2.50;99.90
11055;DHT22;5580;50.106;8.702;2024-01-15T12:25:17;2.40;99.90
11055;DHT22;5580;50.106;8.702;2024-01-15T12:27:43;2.40;99.90
11055;DHT22;5580;50.106;8.702;2024-01-15T12:30:13;2.50;99.90
11055;DHT22;5580;50.106;8.702;2024-01-15T12:32:42;2.50;99.90
11055;DHT22;5580;50.106;8.702;2024-01-15T12:35:12;2.60;99.90
11055;DHT22;5580;50.106;8.702;2024-01-15T12:37:39;2.60;99.90
11055;DHT22;5580;50.106;8.702;2024-01-15T12:40:06;2.60;99.90
11055;DHT22;5580;50.106;8.702;2024-01-15T12:42:33;2.60;99.90
11055;DHT22;5580;50.106;8.702;2024-01-15T12:44:59;2.60;99.90
11055;DHT22;5580;50.106;8.702;2024-01-15T12:47:25;2.70;99.90
11055;DHT22;5580;50.106;8.702;2024-01-15T12:49:52;2.70;99.90
11055;DHT22;5580;50.106;8.702;2024-01-15T12:52:21;2.70;99.90
11055;DHT22;5580;50.106;8.702;2024-01-15T12:54:50;2.70;99.90
11055;DHT22;5580;50.106;8.702;2024-01-15T12:57:16;2.70;99.90
11055;DHT22;5580;50.106;8.702;2024-01-15T12:59:43;2.70;99.90
11055;DHT22;5580;50.106;8.702;2024-01-15T13:02:10;2.80;99.90
11055;DHT22;5580;50.106;8.702;2024-01-15T13:04:36;2.80;99.90
11055;DHT22;5580;50.106;8.702;2024-01-15T13:07:01;2.80;99.90
11055;DHT22;5580;50.106;8.702;2024-01-15T13:09:27;2.80;99.90
11055;DHT22;5580;50.106;8.702;2024-01-15T13:11:53;2.90;99.90
11055;DHT22;5580;50.106;8.702;2024-01-15T13:14:18;2.90;99.90
11055;DHT22;5580;50.106;8.702;2024-01-15T13:16:44;2.90;99.90
11055;DHT22;5580;50.106;8.702;2024-01-15T13:19:10;2.90;99.90
11055;DHT22;5580;50.106;8.702;2024-01-15T13:21:37;2.90;99.90
11055;DHT22;5580;50.106;8.702;2024-01-15T13:24:03;2.90;99.90
11055;DHT22;5580;50.106;8.702;2024-01-15T13:26:33;2.90;99.90
11055;DHT22;5580;50.106;8.702;2024-01-15T13:29:08;2.90;99.90
11055;DHT22;5580;50.106;8.702;2024-01-15T13:31:33;3.00;99.90
11055;DHT22;5580;50.106;8.702;2024-01-15T13:33:59;3.00;99.90
11055;DHT22;5580;50.106;8.702;2024-01-15T13:36:26;3.00;99.90
11055;DHT22;5580;50.106;8.702;2024-01-15T13:38:52;3.00;99.90
11055;DHT22;5580;50.106;8.702;2024-01-15T13:41:19;3.00;99.90
11055;DHT22;5580;50.106;8.702;2024-01-15T13:43:49;3.00;99.90
11055;DHT22;5580;50.106;8.702;2024-01-15T13:46:15;3.10;99.90
11055;DHT22;5580;50.106;8.702;2024-01-15T13:48:40;3.10;99.90
11055;DHT22;5580;50.106;8.702;2024-01-15T13:51:06;3.10;99.90
11055;DHT22;5580;50.106;8.702;2024-01-15T13:53:31;3.10;99.90
11055;DHT22;5580;50.106;8.702;2024-01-15T13:55:57;3.10;99.90
11055;DHT22;5580;50.106;8.702;2024-01-15T13:58:23;3.10;99.90
11055;DHT22;5580;50.106;8.702;2024-01-15T14:00:50;3.10;99.90
11055;DHT22;5580;50.106;8.702;2024-01-15T14:03:16;3.10;99.90
11055;DHT22;5580;50.106;8.702;2024-01-15T14:05:42;3.10;99.90
11055;DHT22;5580;50.106;8.702;2024-01-15T14:08:08;3.10;99.90
11055;DHT22;5580;50.106;8.702;2024-01-15T14:10:33;3.10;99.90
11055;DHT22;5580;50.106;8.702;2024-01-15T14:12:59;3.10;99.90
11055;DHT22;5580;50.106;8.702;2024-01-15T14:15:25;3.10;99.90
11055;DHT22;5580;50.106;8.702;2024-01-15T14:17:50;3.10;99.90
11055;DHT22;5580;50.106;8.702;2024-01-15T14:20:16;3.10;99.90
11055;DHT22;5580;50.106;8.702;2024-01-15T14:22:43;3.10;99.90
11055;DHT22;5580;50.106;8.702;2024-01-15T14:25:08;3.10;99.90
11055;DHT22;5580;50.106;8.702;2024-01-15T14:27:35;3.10;99.90
11055;DHT22;5580;50.106;8.702;2024-01-15T14:30:02;3.00;99.90
11055;DHT22;5580;50.106;8.702;2024-01-15T14:32:27;3.00;99.90
11055;DHT22;5580;50.106;8.702;2024-01-15T14:34:53;3.00;99.90
11055;DHT22;5580;50.106;8.702;2024-01-15T14:37:18;3.00;99.90
11055;DHT22;5580;50.106;8.702;2024-01-15T14:39:44;3.10;99.90
11055;DHT22;5580;50.106;8.702;2024-01-15T14:42:09;3.10;99.90
11055;DHT22;5580;50.106;8.702;2024-01-15T14:44:36;3.10;99.90
11055;DHT22;5580;50.106;8.702;2024-01-15T14:47:03;3.10;99.90
11055;DHT22;5580;50.106;8.702;2024-01-15T14:49:29;3.10;99.90
11055;DHT22;5580;50.106;8.702;2024-01-15T14:51:54;3.10;99.90
11055;DHT22;5580;50.106;8.702;2024-01-15T14:54:20;3.10;99.90
11055;DHT22;5580;50.106;8.702;2024-01-15T14:56:46;3.10;99.90
11055;DHT22;5580;50.106;8.702;2024-01-15T14:59:12;3.10;99.90
11055;DHT22;5580;50.106;8.702;2024-01-15T15:01:37;3.20;99.90
11055;DHT22;5580;50.106;8.702;2024-01-15T15:04:03;3.20;99.90
11055;DHT22;5580;50.106;8.702;2024-01-15T15:06:29;3.10;99.90
11055;DHT22;5580;50.106;8.702;2024-01-15T15:08:54;3.20;99.90
11055;DHT22;5580;50.106;8.702;2024-01-15T15:11:21;3.10;99.90
11055;DHT22;5580;50.106;8.702;2024-01-15T15:13:48;3.10;99.90
11055;DHT22;5580;50.106;8.702;2024-01-15T15:16:15;3.10;99.90
11055;DHT22;5580;50.106;8.702;2024-01-15T15:18:41;3.20;99.90
11055;DHT22;5580;50.106;8.702;2024-01-15T15:21:09;3.20;99.90
11055;DHT22;5580;50.106;8.702;2024-01-15T15:23:35;3.20;99.90
11055;DHT22;5580;50.106;8.702;2024-01-15T15:26:01;3.20;99.90
11055;DHT22;5580;50.106;8.702;2024-01-15T15:28:26;3.20;99.90
11055;DHT22;5580;50.106;8.702;2024-01-15T15:30:52;3.20;99.90
11055;DHT22;5580;50.106;8.702;2024-01-15T15:33:18;3.20;99.90
11055;DHT22;5580;50.106;8.702;2024-01-15T15:35:44;3.20;99.90
11055;DHT22;5580;50.106;8.702;2024-01-15T15:38:09;3.20;99.90
11055;DHT22;5580;50.106;8.702;2024-01-15T15:40:35;3.20;99.90
11055;DHT22;5580;50.106;8.702;2024-01-15T15:43:01;3.20;99.90
11055;DHT22;5580;50.106;8.702;2024-01-15T15:45:26;3.20;99.90
11055;DHT22;5580;50.106;8.702;2024-01-15T15:47:52;3.20;99.90
11055;DHT22;5580;50.106;8.702;2024-01-15T15:50:17;3.20;99.90
11055;DHT22;5580;50.106;8.702;2024-01-15T15:52:43;3.10;99.90
11055;DHT22;5580;50.106;8.702;2024-01-15T15:55:09;3.10;99.90
11055;DHT22;5580;50.106;8.702;2024-01-15T15:57:34;3.10;99.90
11055;DHT22;5580;50.106;8.702;2024-01-15T16:00:00;3.20;99.90
11055;DHT22;5580;50.106;8.702;2024-01-15T16:02:25;3.20;99.90
11055;DHT22;5580;50.106;8.702;2024-01-15T16:04:51;3.20;99.90